Time;durP1;ratioP1;P1;durP2;ratioP2;P2;SDS_P1;SDS_P2;PMS_P1;PMS_P2;Temp;Humidity;BMP_temperature;BMP_pressure;BME280_temperature;BME280_humidity;BME280_pressure;Samples;Min_cycle;Max_cycle;Signal;HPM_P1;HPM_P2
2022/05/25 00:01:19;;;;;;;;;12.80;11.40;25.50;99.90;;;;;;5019352;28;8762;-62
2022/05/25 00:03:45;;;;;;;;;10.00;9.80;25.40;99.90;;;;;;5036321;28;8753;-64
2022/05/25 00:06:12;;;;;;;;;12.40;9.60;25.50;99.90;;;;;;5036431;28;8819;-64
2022/05/25 00:08:40;;;;;;;;;14.00;11.60;25.50;99.90;;;;;;5036176;28;8797;-64
2022/05/25 00:11:08;;;;;;;;;12.80;11.00;25.50;99.90;;;;;;5038554;28;8883;-64
2022/05/25 00:13:34;;;;;;;;;17.40;12.00;25.60;99.90;;;;;;5038201;28;8754;-64
2022/05/25 00:16:01;;;;;;;;;8.60;5.60;25.70;99.90;;;;;;5056805;28;8853;-64
2022/05/25 00:18:28;;;;;;;;;14.40;11.20;25.70;99.90;;;;;;5056122;28;9384;-64
2022/05/25 00:20:54;;;;;;;;;14.80;13.00;25.70;99.90;;;;;;5056315;28;8770;-64
2022/05/25 00:23:21;;;;;;;;;15.40;13.40;25.70;99.90;;;;;;5055352;28;8782;-63
2022/05/25 00:25:48;;;;;;;;;8.00;6.80;25.80;99.90;;;;;;5055701;28;8766;-64
2022/05/25 00:28:16;;;;;;;;;15.60;11.20;25.80;99.90;;;;;;5036517;28;9442;-64
2022/05/25 00:30:44;;;;;;;;;15.60;13.60;25.90;99.90;;;;;;5035749;28;8761;-64
2022/05/25 00:33:11;;;;;;;;;12.80;10.20;25.90;99.90;;;;;;5037709;28;8839;-64
2022/05/25 00:35:38;;;;;;;;;14.00;11.60;25.80;99.90;;;;;;5006224;28;8761;-64
2022/05/25 00:38:05;;;;;;;;;13.80;12.20;25.80;99.90;;;;;;5039513;28;8826;-64
2022/05/25 00:40:39;;;;;;;;;15.60;12.40;25.90;99.90;;;;;;5021458;28;8881;-63
2022/05/25 00:43:06;;;;;;;;;13.40;10.40;25.90;99.90;;;;;;5058727;28;8746;-63
2022/05/25 00:45:36;;;;;;;;;14.40;12.20;25.90;99.90;;;;;;5057890;28;8766;-64
2022/05/25 00:48:02;;;;;;;;;11.60;10.80;26.00;99.90;;;;;;5057783;28;9085;-63
2022/05/25 00:51:11;;;;;;;;;15.60;11.20;26.00;99.90;;;;;;5039506;28;9487;-63
2022/05/25 00:53:16;;;;;;;;;13.40;13.40;26.10;99.90;;;;;;5058462;28;8798;-62
2022/05/25 00:55:43;;;;;;;;;14.00;11.80;26.00;99.90;;;;;;5040576;28;8820;-68
2022/05/25 00:58:09;;;;;;;;;18.80;13.20;26.00;99.90;;;;;;5041883;28;8758;-65
2022/05/25 01:00:37;;;;;;;;;10.40;10.40;26.10;99.90;;;;;;5059030;28;8747;-67
2022/05/25 01:03:08;;;;;;;;;14.00;11.20;26.10;99.90;;;;;;5059240;28;8881;-65
2022/05/25 01:05:45;;;;;;;;;8.80;7.40;26.10;99.90;;;;;;5040761;28;8880;-68
2022/05/25 01:08:18;;;;;;;;;13.80;12.00;26.20;99.90;;;;;;5041116;28;8762;-67
2022/05/25 01:11:09;;;;;;;;;9.80;7.80;26.60;99.90;;;;;;5041414;28;8810;-66
2022/05/25 01:13:48;;;;;;;;;14.20;11.60;26.80;99.90;;;;;;5037234;28;8741;-67
2022/05/25 01:16:52;;;;;;;;;15.40;9.80;27.30;99.90;;;;;;5038973;28;8765;-66
2022/05/25 01:19:27;;;;;;;;;9.20;8.00;27.00;99.90;;;;;;5044571;28;8758;-65
2022/05/25 01:22:02;;;;;;;;;13.00;11.00;27.00;99.90;;;;;;5039216;28;8757;-66
2022/05/25 01:24:32;;;;;;;;;11.60;9.00;27.50;99.90;;;;;;5022936;28;8891;-70
2022/05/25 01:27:32;;;;;;;;;12.80;11.20;27.90;99.90;;;;;;5050274;28;8790;-63
2022/05/25 01:30:03;;;;;;;;;10.00;8.20;27.40;99.90;;;;;;5043349;28;8759;-63
2022/05/25 01:32:51;;;;;;;;;12.40;9.80;27.70;99.90;;;;;;5073701;28;8897;-63
2022/05/25 01:35:27;;;;;;;;;10.20;10.20;28.10;99.90;;;;;;5038414;28;8825;-61
2022/05/25 01:38:17;;;;;;;;;9.20;7.00;27.70;99.90;;;;;;5070368;28;8768;-62
2022/05/25 01:40:45;;;;;;;;;15.60;11.40;27.50;99.90;;;;;;5035851;28;8768;-63
2022/05/25 01:43:16;;;;;;;;;13.80;12.00;28.30;99.90;;;;;;5048874;28;8775;-63
2022/05/25 01:45:52;;;;;;;;;12.20;11.40;28.80;99.90;;;;;;5014371;28;8796;-63
2022/05/25 01:48:19;;;;;;;;;13.60;11.60;28.60;99.90;;;;;;5034422;28;8777;-63
2022/05/25 01:50:48;;;;;;;;;9.00;6.00;28.40;99.90;;;;;;5016678;28;8957;-64
2022/05/25 01:53:16;;;;;;;;;8.80;8.80;28.20;99.90;;;;;;5016837;28;8771;-63
2022/05/25 01:55:51;;;;;;;;;15.00;11.00;28.90;99.90;;;;;;5000372;28;8829;-63
2022/05/25 01:58:22;;;;;;;;;12.40;9.40;28.50;99.90;;;;;;5035244;28;8877;-63
2022/05/25 02:00:50;;;;;;;;;10.00;7.80;28.40;99.90;;;;;;5032302;28;8771;-68
2022/05/25 02:06:10;;;;;;;;;10.00;7.00;28.40;99.90;;;;;;5017755;28;9074;-63
2022/05/25 02:08:48;;;;;;;;;14.40;9.20;28.40;99.90;;;;;;5049413;28;9944;-64
2022/05/25 02:11:25;;;;;;;;;12.40;10.20;28.70;99.90;;;;;;5052965;28;8883;-67
2022/05/25 02:14:28;;;;;;;;;13.80;12.40;28.60;99.90;;;;;;5067749;28;9437;-66
2022/05/25 02:17:17;;;;;;;;;14.40;8.20;27.70;99.90;;;;;;5037927;28;8756;-66
2022/05/25 02:19:46;;;;;;;;;12.00;8.20;28.40;99.90;;;;;;5037941;28;8782;-66
2022/05/25 02:22:21;;;;;;;;;12.20;8.00;28.70;99.90;;;;;;5037580;28;8839;-67
2022/05/25 02:25:08;;;;;;;;;12.60;9.20;28.60;99.90;;;;;;5051082;28;8877;-66
2022/05/25 02:27:39;;;;;;;;;11.60;8.40;29.30;99.90;;;;;;5011016;28;8767;-64
2022/05/25 02:30:14;;;;;;;;;11.00;7.40;29.60;99.90;;;;;;5016946;28;8782;-65
2022/05/25 02:33:09;;;;;;;;;11.00;10.00;28.80;99.90;;;;;;5031665;28;8759;-65
2022/05/25 02:35:35;;;;;;;;;8.40;7.40;29.60;99.90;;;;;;5012494;28;8791;-65
2022/05/25 02:38:04;;;;;;;;;9.40;9.20;29.30;99.90;;;;;;4999812;28;8933;-65
2022/05/25 02:40:32;;;;;;;;;12.60;9.80;29.40;99.90;;;;;;5015602;28;8874;-65
2022/05/25 02:42:59;;;;;;;;;14.20;9.40;29.60;99.90;;;;;;5034760;28;8777;-65
2022/05/25 02:45:25;;;;;;;;;8.20;5.40;29.50;99.90;;;;;;5035285;28;8764;-65
2022/05/25 02:47:52;;;;;;;;;11.20;9.40;29.70;99.90;;;;;;5036302;28;8764;-64
2022/05/25 02:50:19;;;;;;;;;13.00;9.80;29.70;99.90;;;;;;5036035;28;8800;-64
2022/05/25 02:52:46;;;;;;;;;10.60;10.60;29.10;99.90;;;;;;5036185;28;8826;-66
2022/05/25 02:55:13;;;;;;;;;17.20;10.40;28.90;99.90;;;;;;5068552;28;8863;-67
2022/05/25 02:57:40;;;;;;;;;14.60;11.00;28.80;99.90;;;;;;5053349;28;8823;-66
2022/05/25 03:00:07;;;;;;;;;12.20;11.20;28.70;99.90;;;;;;5017186;28;9451;-66
2022/05/25 03:02:34;;;;;;;;;12.60;11.00;28.50;99.90;;;;;;5016236;28;8797;-67
2022/05/25 03:05:01;;;;;;;;;11.40;8.40;28.50;99.90;;;;;;5015512;28;8896;-67
2022/05/25 03:07:28;;;;;;;;;13.60;12.40;28.50;99.90;;;;;;5016631;28;8769;-70
2022/05/25 03:09:54;;;;;;;;;12.00;9.40;28.60;99.90;;;;;;5017322;28;8778;-69
2022/05/25 03:12:21;;;;;;;;;11.60;10.00;28.60;99.90;;;;;;5044034;28;8765;-67
2022/05/25 03:14:48;;;;;;;;;10.00;8.60;28.70;99.90;;;;;;5052442;28;8772;-67
2022/05/25 03:17:14;;;;;;;;;11.20;10.40;29.20;99.90;;;;;;5068601;28;8766;-67
2022/05/25 03:19:54;;;;;;;;;11.40;9.80;29.80;99.90;;;;;;5035149;28;8794;-69
2022/05/25 03:22:21;;;;;;;;;12.40;10.60;30.00;99.90;;;;;;5065276;28;8748;-66
2022/05/25 03:24:48;;;;;;;;;13.00;10.00;29.90;99.90;;;;;;5036934;28;8745;-67
2022/05/25 03:27:15;;;;;;;;;13.00;9.80;30.00;99.90;;;;;;5035645;28;8920;-67
2022/05/25 03:29:42;;;;;;;;;10.40;8.20;30.00;99.90;;;;;;5036603;28;9491;-66
2022/05/25 03:32:10;;;;;;;;;17.60;11.80;29.80;99.90;;;;;;5052131;28;8787;-66
2022/05/25 03:34:36;;;;;;;;;14.00;10.20;29.80;99.90;;;;;;5068232;28;8749;-67
2022/05/25 03:37:03;;;;;;;;;15.40;9.00;30.10;99.90;;;;;;5036479;28;8740;-65
2022/05/25 03:39:30;;;;;;;;;10.60;9.60;30.20;99.90;;;;;;5034421;28;8775;-65
2022/05/25 03:41:58;;;;;;;;;15.00;8.60;30.10;99.90;;;;;;5045623;28;8814;-65
2022/05/25 03:44:25;;;;;;;;;13.60;10.20;30.00;99.90;;;;;;5051342;28;8756;-66
2022/05/25 03:46:52;;;;;;;;;8.20;7.00;30.00;99.90;;;;;;5067958;28;8906;-65
2022/05/25 03:49:19;;;;;;;;;10.40;9.40;30.50;99.90;;;;;;5035124;28;8893;-63
2022/05/25 03:51:45;;;;;;;;;6.20;6.20;30.60;99.90;;;;;;5058606;28;8778;-66
2022/05/25 03:54:12;;;;;;;;;10.60;8.80;30.50;99.90;;;;;;5034915;28;8767;-63
2022/05/25 03:56:39;;;;;;;;;14.00;9.40;31.00;99.90;;;;;;5060909;28;8817;-65
2022/05/25 03:59:06;;;;;;;;;9.00;7.80;30.20;99.90;;;;;;5016258;28;8783;-64
2022/05/25 04:01:34;;;;;;;;;11.00;10.00;30.50;99.90;;;;;;5015058;28;8747;-63
2022/05/25 04:04:01;;;;;;;;;10.20;7.20;30.30;99.90;;;;;;5014880;28;8765;-64
2022/05/25 04:06:27;;;;;;;;;8.20;8.20;29.80;99.90;;;;;;5016463;28;8762;-63
2022/05/25 04:08:54;;;;;;;;;8.60;7.40;30.30;99.90;;;;;;5019633;28;9093;-63
2022/05/25 04:11:21;;;;;;;;;12.80;7.00;30.30;99.90;;;;;;5022257;28;8803;-62
2022/05/25 04:13:47;;;;;;;;;8.40;8.00;30.70;99.90;;;;;;5039979;28;9374;-67
2022/05/25 04:16:14;;;;;;;;;11.40;9.00;31.10;99.90;;;;;;5040045;28;8744;-69
2022/05/25 04:18:41;;;;;;;;;12.00;10.20;30.90;99.90;;;;;;5071467;28;8767;-66
2022/05/25 04:21:07;;;;;;;;;12.40;11.20;31.10;99.90;;;;;;5039111;28;9155;-66
2022/05/25 04:23:34;;;;;;;;;10.40;7.00;31.20;99.90;;;;;;5038896;28;8791;-65
2022/05/25 04:26:01;;;;;;;;;11.60;8.80;31.20;99.90;;;;;;5037815;28;8846;-70
2022/05/25 04:28:28;;;;;;;;;10.00;8.80;30.70;99.90;;;;;;5019385;28;8890;-67
2022/05/25 04:30:54;;;;;;;;;10.60;7.80;30.40;99.90;;;;;;5019475;28;8791;-67
2022/05/25 04:33:21;;;;;;;;;11.80;9.20;30.30;99.90;;;;;;5019582;28;8771;-67
2022/05/25 04:35:48;;;;;;;;;11.40;9.80;30.10;99.90;;;;;;4986689;28;8763;-67
2022/05/25 04:38:15;;;;;;;;;8.60;6.80;29.90;99.90;;;;;;5019428;28;8864;-67
2022/05/25 04:40:44;;;;;;;;;13.80;10.00;29.90;99.90;;;;;;5019715;28;8747;-67
2022/05/25 04:43:12;;;;;;;;;13.00;9.40;30.00;99.90;;;;;;5037505;28;8741;-67
2022/05/25 04:45:42;;;;;;;;;11.40;10.00;30.00;99.90;;;;;;5039492;28;8812;-67
2022/05/25 04:48:46;;;;;;;;;12.40;10.60;29.90;99.90;;;;;;5071610;28;8811;-67
2022/05/25 04:51:14;;;;;;;;;9.00;8.40;30.10;99.90;;;;;;5039707;28;8824;-66
2022/05/25 04:53:42;;;;;;;;;12.00;10.00;30.10;99.90;;;;;;5039643;28;8776;-67
2022/05/25 04:58:53;;;;;;;;;11.00;7.80;30.10;99.90;;;;;;5020142;28;8783;-67
2022/05/25 05:01:20;;;;;;;;;10.80;10.00;30.10;99.90;;;;;;5035330;28;8759;-66
2022/05/25 05:03:47;;;;;;;;;12.20;10.40;30.10;99.90;;;;;;5019484;28;8770;-67
2022/05/25 05:06:13;;;;;;;;;8.80;8.40;30.00;99.90;;;;;;5018431;28;9515;-67
2022/05/25 05:08:40;;;;;;;;;10.40;9.40;29.90;99.90;;;;;;5050885;28;8844;-67
2022/05/25 05:11:09;;;;;;;;;13.40;9.60;30.10;99.90;;;;;;5019183;28;8786;-67
2022/05/25 05:13:37;;;;;;;;;10.00;8.00;30.10;99.90;;;;;;5053021;28;8973;-67
2022/05/25 05:16:06;;;;;;;;;10.80;9.00;30.20;99.90;;;;;;5039003;28;8764;-67
2022/05/25 05:18:33;;;;;;;;;11.80;9.40;30.40;99.90;;;;;;5036828;28;8752;-67
2022/05/25 05:20:59;;;;;;;;;9.00;6.80;30.20;99.90;;;;;;5039311;28;8756;-67
2022/05/25 05:23:29;;;;;;;;;9.80;9.80;30.20;99.90;;;;;;5038650;28;8784;-67
2022/05/25 05:25:56;;;;;;;;;8.00;7.80;30.20;99.90;;;;;;5036731;28;8768;-67
2022/05/25 05:28:25;;;;;;;;;11.00;11.00;29.90;99.90;;;;;;5018310;28;8794;-67
2022/05/25 05:30:53;;;;;;;;;8.60;8.20;29.90;99.90;;;;;;5016541;28;8829;-67
2022/05/25 05:33:23;;;;;;;;;11.40;10.20;30.00;99.90;;;;;;5017386;28;9883;-66
2022/05/25 05:36:14;;;;;;;;;12.80;9.20;30.10;99.90;;;;;;5017688;28;8770;-67
2022/05/25 05:38:55;;;;;;;;;14.40;10.00;30.20;99.90;;;;;;5018069;28;8778;-67
2022/05/25 05:41:23;;;;;;;;;9.60;7.80;30.20;99.90;;;;;;5021023;28;8808;-66
2022/05/25 05:43:50;;;;;;;;;15.60;11.40;30.40;99.90;;;;;;5038184;28;8752;-67
2022/05/25 05:46:17;;;;;;;;;10.60;9.00;30.40;99.90;;;;;;5037802;28;8736;-67
2022/05/25 05:48:43;;;;;;;;;11.60;8.00;30.40;99.90;;;;;;5070277;28;9490;-67
2022/05/25 05:51:11;;;;;;;;;9.00;8.00;30.30;99.90;;;;;;5037883;28;8893;-67
2022/05/25 05:53:38;;;;;;;;;14.80;10.00;30.30;99.90;;;;;;5037639;28;8815;-67
2022/05/25 05:56:05;;;;;;;;;11.80;10.60;30.50;99.90;;;;;;5068365;28;8799;-66
2022/05/25 05:58:32;;;;;;;;;13.80;10.80;30.50;99.90;;;;;;5018341;28;9437;-67
2022/05/25 06:00:59;;;;;;;;;11.60;11.00;30.50;99.90;;;;;;5018850;28;8755;-67
2022/05/25 06:03:25;;;;;;;;;10.20;10.20;30.80;99.90;;;;;;5017907;28;8836;-67
2022/05/25 06:05:52;;;;;;;;;12.20;10.20;30.70;99.90;;;;;;5018224;28;8767;-67
2022/05/25 06:08:21;;;;;;;;;13.00;11.00;30.90;99.90;;;;;;5015029;28;8774;-66
2022/05/25 06:10:48;;;;;;;;;13.60;10.60;30.80;99.90;;;;;;5016431;28;8790;-67
2022/05/25 06:13:14;;;;;;;;;15.40;10.00;30.60;99.90;;;;;;5051014;28;9375;-67
2022/05/25 06:21:19;;;;;;;;;13.60;9.80;30.50;99.90;;;;;;5065173;28;8764;-66
2022/05/25 06:23:46;;;;;;;;;9.40;9.20;30.50;99.90;;;;;;5069051;28;8776;-67
2022/05/25 06:26:15;;;;;;;;;8.60;5.20;30.60;99.90;;;;;;5034550;28;9850;-67
2022/05/25 06:28:43;;;;;;;;;6.60;5.60;30.50;99.90;;;;;;5017295;28;8771;-66
2022/05/25 06:31:10;;;;;;;;;9.40;9.00;30.60;99.90;;;;;;5016453;28;9498;-67
2022/05/25 06:33:38;;;;;;;;;12.00;11.60;30.60;99.90;;;;;;5016739;28;8743;-67
2022/05/25 06:36:16;;;;;;;;;13.20;11.20;30.60;99.90;;;;;;5017787;28;8774;-67
2022/05/25 06:38:43;;;;;;;;;13.40;12.40;30.60;99.90;;;;;;5017836;28;9403;-67
2022/05/25 06:41:09;;;;;;;;;9.60;7.20;30.60;99.90;;;;;;5019579;28;8901;-67
2022/05/25 06:43:36;;;;;;;;;11.40;7.20;30.60;99.90;;;;;;5069119;28;8748;-67
2022/05/25 06:46:03;;;;;;;;;13.00;12.00;30.80;99.90;;;;;;5037375;28;9092;-67
2022/05/25 06:48:30;;;;;;;;;9.00;8.40;30.80;99.90;;;;;;5035494;28;8740;-67
2022/05/25 06:50:57;;;;;;;;;13.60;12.00;31.10;99.90;;;;;;5069072;28;9817;-67
2022/05/25 06:53:23;;;;;;;;;17.00;11.60;31.20;99.90;;;;;;5035448;28;8780;-67
2022/05/25 06:55:50;;;;;;;;;10.40;10.40;31.30;99.90;;;;;;5069616;28;8771;-67
2022/05/25 06:58:17;;;;;;;;;16.00;11.60;31.20;99.90;;;;;;5017468;28;8759;-66
2022/05/25 07:00:44;;;;;;;;;11.40;7.40;31.10;99.90;;;;;;5049060;28;8759;-67
2022/05/25 07:03:11;;;;;;;;;12.60;9.60;31.20;99.90;;;;;;5010082;28;8769;-67
2022/05/25 07:05:38;;;;;;;;;14.80;7.80;31.40;99.90;;;;;;5020471;28;8806;-67
2022/05/25 07:08:05;;;;;;;;;12.40;10.80;31.20;99.90;;;;;;5017483;28;8759;-67
2022/05/25 07:10:32;;;;;;;;;10.60;9.00;31.20;99.90;;;;;;5015785;28;8779;-67
2022/05/25 07:12:58;;;;;;;;;12.40;9.80;31.20;99.90;;;;;;5034667;28;8782;-66
2022/05/25 07:15:25;;;;;;;;;16.40;11.40;31.30;99.90;;;;;;5068279;28;8858;-67
2022/05/25 07:17:52;;;;;;;;;21.20;11.20;31.20;99.90;;;;;;5035321;28;8756;-67
2022/05/25 07:20:19;;;;;;;;;10.00;9.00;31.10;99.90;;;;;;5036937;28;8768;-66
2022/05/25 07:22:45;;;;;;;;;17.00;9.80;31.20;99.90;;;;;;5037029;28;8847;-67
2022/05/25 07:25:12;;;;;;;;;14.80;11.20;31.10;99.90;;;;;;5069243;28;9532;-67
2022/05/25 07:27:39;;;;;;;;;16.60;9.20;31.00;99.90;;;;;;5053610;28;8770;-66
2022/05/25 07:30:07;;;;;;;;;13.80;11.80;31.00;99.90;;;;;;5017045;28;8774;-67
2022/05/25 07:32:34;;;;;;;;;12.40;6.80;30.90;99.90;;;;;;5016425;28;8739;-67
2022/05/25 07:35:04;;;;;;;;;11.20;11.20;30.90;99.90;;;;;;5016193;28;8861;-67
2022/05/25 07:37:33;;;;;;;;;11.80;9.00;30.90;99.90;;;;;;5015399;28;9438;-67
2022/05/25 07:40:22;;;;;;;;;14.20;11.20;30.90;99.90;;;;;;5016814;28;8849;-67
2022/05/25 07:42:50;;;;;;;;;15.40;12.40;31.00;99.90;;;;;;5054631;28;8752;-67
2022/05/25 07:45:16;;;;;;;;;15.20;10.80;31.10;99.90;;;;;;5068596;28;8780;-62
2022/05/25 07:47:43;;;;;;;;;8.40;8.00;31.20;99.90;;;;;;5036749;28;8740;-64
2022/05/25 07:50:10;;;;;;;;;13.00;9.60;31.20;99.90;;;;;;5036657;28;8811;-64
2022/05/25 07:52:39;;;;;;;;;15.00;10.00;31.10;99.90;;;;;;5036305;28;8757;-64
2022/05/25 07:55:09;;;;;;;;;13.80;10.40;31.10;99.90;;;;;;5045711;28;8797;-64
2022/05/25 07:57:36;;;;;;;;;10.80;9.40;31.10;99.90;;;;;;5030755;28;8751;-64
2022/05/25 08:00:03;;;;;;;;;14.80;11.60;31.30;99.90;;;;;;5017157;28;8774;-64
2022/05/25 08:08:08;;;;;;;;;13.60;10.80;31.20;99.90;;;;;;5001826;28;8763;-64
2022/05/25 08:10:34;;;;;;;;;12.60;10.20;31.10;99.90;;;;;;5016517;28;8778;-64
2022/05/25 08:13:01;;;;;;;;;15.00;10.00;31.10;99.90;;;;;;5034342;28;8764;-64
2022/05/25 08:15:28;;;;;;;;;14.40;10.00;31.00;99.90;;;;;;5068168;28;8739;-64
2022/05/25 08:17:55;;;;;;;;;13.80;10.80;31.00;99.90;;;;;;5036702;28;8895;-64
2022/05/25 08:20:22;;;;;;;;;13.20;10.00;31.10;99.90;;;;;;5036512;28;8775;-63
2022/05/25 08:22:49;;;;;;;;;11.60;11.00;31.20;99.90;;;;;;5036466;28;8752;-64
2022/05/25 08:25:17;;;;;;;;;14.00;9.20;31.00;99.90;;;;;;5035330;28;8724;-64
2022/05/25 08:27:44;;;;;;;;;16.00;10.60;31.00;99.90;;;;;;5052426;28;8771;-64
2022/05/25 08:30:17;;;;;;;;;13.00;10.80;31.00;99.90;;;;;;5014922;28;8861;-64
2022/05/25 08:32:44;;;;;;;;;12.20;11.60;30.90;99.90;;;;;;5016561;28;8744;-64
2022/05/25 08:35:11;;;;;;;;;15.20;11.00;30.90;99.90;;;;;;5016327;28;8786;-64
2022/05/25 08:37:38;;;;;;;;;15.40;11.00;30.80;99.90;;;;;;5014299;28;9420;-64
2022/05/25 08:40:05;;;;;;;;;12.40;9.60;31.00;99.90;;;;;;5048886;28;8747;-64
2022/05/25 08:42:35;;;;;;;;;13.20;11.40;31.10;99.90;;;;;;5044793;28;8753;-63
2022/05/25 08:45:02;;;;;;;;;13.60;11.80;31.10;99.90;;;;;;5068318;28;8749;-64
2022/05/25 08:47:28;;;;;;;;;21.00;13.00;31.10;99.90;;;;;;5067652;28;8759;-64
2022/05/25 08:49:55;;;;;;;;;14.20;12.20;31.20;99.90;;;;;;5036183;28;8760;-64
2022/05/25 08:52:29;;;;;;;;;10.00;7.60;31.30;99.90;;;;;;5036483;28;8786;-64
2022/05/25 08:54:59;;;;;;;;;14.80;10.60;31.40;99.90;;;;;;5038052;28;8822;-64
2022/05/25 08:57:40;;;;;;;;;13.80;10.60;31.30;99.90;;;;;;5041533;28;8806;-64
2022/05/25 09:00:13;;;;;;;;;12.60;11.80;31.20;99.90;;;;;;5020063;28;9443;-64
2022/05/25 09:02:45;;;;;;;;;11.20;9.80;31.20;99.90;;;;;;5018726;28;8824;-64
2022/05/25 09:05:20;;;;;;;;;27.75;16.25;31.10;99.90;;;;;;5018889;28;9435;-64
2022/05/25 09:08:05;;;;;;;;;13.20;11.00;31.20;99.90;;;;;;5019993;28;8755;-64
2022/05/25 09:10:34;;;;;;;;;9.60;8.00;31.10;99.90;;;;;;5018587;28;8747;-63
2022/05/25 09:13:15;;;;;;;;;17.80;10.40;31.10;99.90;;;;;;5019897;28;8733;-64
2022/05/25 09:16:15;;;;;;;;;13.40;11.40;31.10;99.90;;;;;;5070430;28;9125;-64
2022/05/25 09:18:34;;;;;;;;;12.80;12.80;31.40;99.90;;;;;;5051946;28;8891;-64
2022/05/25 09:21:07;;;;;;;;;18.00;10.20;31.50;99.90;;;;;;5054094;28;8760;-64
2022/05/25 09:23:34;;;;;;;;;11.40;9.60;31.50;99.90;;;;;;5038282;28;8785;-64
2022/05/25 09:26:00;;;;;;;;;11.40;9.80;31.60;99.90;;;;;;5070481;28;8756;-64
2022/05/25 09:28:38;;;;;;;;;11.80;8.80;31.80;99.90;;;;;;5002147;28;8856;-63
2022/05/25 09:31:05;;;;;;;;;9.40;8.80;31.70;99.90;;;;;;5019037;28;8813;-64
2022/05/25 09:33:35;;;;;;;;;14.20;10.00;31.60;99.90;;;;;;5017914;28;8751;-64
2022/05/25 09:36:16;;;;;;;;;13.80;9.20;31.50;99.90;;;;;;5019172;28;8747;-64
2022/05/25 09:38:46;;;;;;;;;13.80;10.00;31.50;99.90;;;;;;5018142;28;8747;-64
2022/05/25 09:41:14;;;;;;;;;14.80;11.60;31.50;99.90;;;;;;5021552;28;8798;-64
2022/05/25 09:43:43;;;;;;;;;11.20;8.80;31.30;99.90;;;;;;5038972;28;8740;-63
2022/05/25 09:46:14;;;;;;;;;13.20;10.80;31.30;99.90;;;;;;5061952;28;8772;-64
2022/05/25 09:48:59;;;;;;;;;14.60;12.00;31.50;99.90;;;;;;5053631;28;8874;-64
2022/05/25 09:51:52;;;;;;;;;13.00;9.60;31.50;99.90;;;;;;5038332;28;8922;-64
2022/05/25 09:54:34;;;;;;;;;11.40;10.00;31.60;99.90;;;;;;5035894;28;8834;-63
2022/05/25 09:57:08;;;;;;;;;12.60;10.60;31.50;99.90;;;;;;5058966;28;8813;-64
2022/05/25 09:59:42;;;;;;;;;12.20;10.00;31.50;99.90;;;;;;5019058;28;8775;-66
2022/05/25 10:02:31;;;;;;;;;14.80;13.00;31.40;99.90;;;;;;5018048;28;8775;-66
2022/05/25 10:05:09;;;;;;;;;14.60;9.40;31.40;99.90;;;;;;5034243;28;8773;-65
2022/05/25 10:07:38;;;;;;;;;9.80;9.40;31.40;99.90;;;;;;5018228;28;8740;-64
2022/05/25 10:10:11;;;;;;;;;12.40;10.40;31.40;99.90;;;;;;5019257;28;8767;-64
2022/05/25 10:12:44;;;;;;;;;12.20;12.00;31.30;99.90;;;;;;5032836;28;8862;-64
2022/05/25 10:15:21;;;;;;;;;12.80;10.80;31.20;99.90;;;;;;5037534;28;8749;-64
2022/05/25 10:17:48;;;;;;;;;14.60;14.20;31.30;99.90;;;;;;5053653;28;8810;-64
2022/05/25 10:20:32;;;;;;;;;28.25;24.25;31.20;99.90;;;;;;5038447;28;8760;-64
2022/05/25 10:23:22;;;;;;;;;13.00;12.40;31.20;99.90;;;;;;5038674;28;8775;-64
2022/05/25 10:25:54;;;;;;;;;15.80;12.20;31.30;99.90;;;;;;5070359;28;8862;-64
2022/05/25 10:28:24;;;;;;;;;14.40;10.60;31.20;99.90;;;;;;5034381;28;9435;-64
2022/05/25 10:37:08;;;;;;;;;19.00;12.00;31.20;99.90;;;;;;5017376;28;9554;-64
2022/05/25 10:39:47;;;;;;;;;10.00;10.00;31.10;99.90;;;;;;5018280;28;8801;-64
2022/05/25 10:42:32;;;;;;;;;13.00;10.00;31.10;99.90;;;;;;5044245;28;8864;-64
2022/05/25 10:45:13;;;;;;;;;10.40;9.00;31.10;99.90;;;;;;5068920;28;8760;-64
2022/05/25 10:50:47;;;;;;;;;16.60;12.60;31.10;99.90;;;;;;5037772;28;8791;-61
2022/05/25 10:53:32;;;;;;;;;15.60;12.00;31.20;99.90;;;;;;5033203;28;8855;-64
2022/05/25 10:56:13;;;;;;;;;13.20;12.40;31.20;99.90;;;;;;5035854;28;8863;-64
2022/05/25 10:59:06;;;;;;;;;16.00;13.00;31.20;99.90;;;;;;5032870;28;8770;-64
2022/05/25 11:01:42;;;;;;;;;10.60;10.40;31.20;99.90;;;;;;5017920;28;8845;-64
2022/05/25 11:04:38;;;;;;;;;16.20;12.80;31.10;99.90;;;;;;5017428;28;8777;-64
2022/05/25 11:07:33;;;;;;;;;16.00;13.00;31.10;99.90;;;;;;5010656;28;8885;-64
2022/05/25 11:10:10;;;;;;;;;20.60;12.80;31.10;99.90;;;;;;5018450;28;8763;-64
2022/05/25 11:12:39;;;;;;;;;17.40;11.20;31.10;99.90;;;;;;5029852;28;8842;-64
2022/05/25 11:15:16;;;;;;;;;16.80;11.20;30.90;99.90;;;;;;5037606;28;8786;-64
2022/05/25 11:17:52;;;;;;;;;11.00;8.60;30.90;99.90;;;;;;5035434;28;8764;-65
2022/05/25 11:20:26;;;;;;;;;17.80;12.60;30.90;99.90;;;;;;5037342;28;9407;-63
2022/05/25 11:23:48;;;;;;;;;16.20;12.00;30.80;99.90;;;;;;5068356;28;8813;-64
2022/05/25 11:26:28;;;;;;;;;13.00;10.20;30.80;99.90;;;;;;4963857;28;8898;-64
2022/05/25 11:29:22;;;;;;;;;13.60;13.40;30.80;99.90;;;;;;5033300;28;8762;-64
2022/05/25 11:32:05;;;;;;;;;20.80;13.60;30.70;99.90;;;;;;5017831;28;8779;-64
2022/05/25 11:34:58;;;;;;;;;20.40;14.20;30.60;99.90;;;;;;5000757;28;8766;-64
2022/05/25 11:37:44;;;;;;;;;19.20;15.00;30.60;99.90;;;;;;5016799;28;8779;-57
2022/05/25 11:41:15;;;;;;;;;16.80;15.00;30.60;99.90;;;;;;5018062;28;8767;-64
2022/05/25 11:43:51;;;;;;;;;18.60;15.80;30.50;99.90;;;;;;4995580;28;8757;-64
2022/05/25 11:46:22;;;;;;;;;17.00;10.00;30.40;99.90;;;;;;5011218;28;8771;-63
2022/05/25 11:49:10;;;;;;;;;16.20;13.40;30.30;99.90;;;;;;5049360;28;8793;-64
2022/05/25 11:51:49;;;;;;;;;16.40;12.80;30.40;99.90;;;;;;5016941;28;8822;-64
2022/05/25 11:54:28;;;;;;;;;18.40;14.80;30.30;99.90;;;;;;5017288;28;8808;-64
2022/05/25 11:57:26;;;;;;;;;17.20;12.80;30.30;99.90;;;;;;5025519;28;8752;-64
2022/05/25 12:00:05;;;;;;;;;22.00;15.60;30.20;99.90;;;;;;5022977;28;8752;-64
2022/05/25 12:03:08;;;;;;;;;18.00;16.00;30.20;99.90;;;;;;5067948;28;8764;-64
2022/05/25 12:05:50;;;;;;;;;20.60;16.40;30.20;99.90;;;;;;5037035;28;8752;-64
2022/05/25 12:08:34;;;;;;;;;21.20;16.80;30.10;99.90;;;;;;5035686;28;8749;-62
2022/05/25 12:11:10;;;;;;;;;16.40;15.80;30.10;99.90;;;;;;5036282;28;8768;-64
2022/05/25 12:14:15;;;;;;;;;24.20;16.20;30.10;99.90;;;;;;5015661;28;9432;-64
2022/05/25 12:16:42;;;;;;;;;24.50;18.25;30.00;99.90;;;;;;5015753;28;8754;-64
2022/05/25 12:19:20;;;;;;;;;22.60;18.60;30.00;99.90;;;;;;5016266;28;8751;-64
2022/05/25 12:21:52;;;;;;;;;26.75;19.50;30.00;99.90;;;;;;5032248;28;8786;-64
2022/05/25 12:24:24;;;;;;;;;26.00;21.00;30.00;99.90;;;;;;4999634;28;8775;-63
2022/05/25 12:26:51;;;;;;;;;20.50;17.50;30.00;99.90;;;;;;5007279;28;8800;-64
2022/05/25 12:29:28;;;;;;;;;28.50;22.25;30.00;99.90;;;;;;5039874;28;9449;-63
2022/05/25 12:31:56;;;;;;;;;30.00;23.75;29.90;99.90;;;;;;5054965;28;8850;-64
2022/05/25 12:34:50;;;;;;;;;27.40;21.20;29.70;99.90;;;;;;5040543;28;8787;-63
2022/05/25 12:37:29;;;;;;;;;29.80;24.00;29.70;99.90;;;;;;5039863;28;8786;-64
2022/05/25 12:40:02;;;;;;;;;28.25;26.00;29.70;99.90;;;;;;5040878;28;8790;-64
2022/05/25 12:42:28;;;;;;;;;25.25;21.00;29.60;99.90;;;;;;5027204;28;9056;-64
2022/05/25 12:51:07;;;;;;;;;27.50;24.00;29.70;99.90;;;;;;5020179;28;8926;-64
2022/05/25 12:53:41;;;;;;;;;35.75;28.00;29.60;99.90;;;;;;4980023;28;8791;-64
2022/05/25 12:56:21;;;;;;;;;42.75;33.25;29.60;99.90;;;;;;4981364;28;8783;-64
2022/05/25 12:58:47;;;;;;;;;43.75;34.00;29.50;99.90;;;;;;5000427;28;8811;-64
2022/05/25 13:01:23;;;;;;;;;43.75;32.00;29.60;99.90;;;;;;4999632;28;8800;-64
2022/05/25 13:03:50;;;;;;;;;36.75;29.25;29.60;99.90;;;;;;5000624;28;8867;-64
2022/05/25 13:06:29;;;;;;;;;32.50;26.50;29.50;99.90;;;;;;5000360;28;8792;-63
2022/05/25 13:08:56;;;;;;;;;26.25;22.00;29.50;99.90;;;;;;5000737;28;8745;-64
2022/05/25 13:11:29;;;;;;;;;27.50;20.25;29.50;99.90;;;;;;4996425;28;8816;-63
2022/05/25 13:13:55;;;;;;;;;24.60;18.60;29.50;99.90;;;;;;4980524;28;8842;-64
2022/05/25 13:16:41;;;;;;;;;31.40;25.20;29.50;99.90;;;;;;4963921;28;8788;-64
2022/05/25 13:19:17;;;;;;;;;22.80;21.00;29.50;99.90;;;;;;4995902;28;8814;-64
2022/05/25 13:21:45;;;;;;;;;27.40;22.00;29.50;99.90;;;;;;4981011;28;8756;-64
2022/05/25 13:24:24;;;;;;;;;22.60;20.80;29.50;99.90;;;;;;4979789;28;8799;-64
2022/05/25 13:27:12;;;;;;;;;23.40;18.80;29.50;99.90;;;;;;4971768;28;8775;-64
2022/05/25 13:30:03;;;;;;;;;23.60;21.20;29.40;99.90;;;;;;4998845;28;8789;-64
2022/05/25 13:32:37;;;;;;;;;26.20;21.60;29.40;99.90;;;;;;4999919;28;8789;-64
2022/05/25 13:35:36;;;;;;;;;29.75;22.75;29.20;99.90;;;;;;4998829;28;9403;-64
2022/05/25 13:38:16;;;;;;;;;27.00;22.50;29.00;99.90;;;;;;5007625;28;8873;-64
2022/05/25 13:40:48;;;;;;;;;28.25;23.25;28.90;99.90;;;;;;4999839;28;8748;-64